sensor_id;sensor_type;location;lat;lon;timestamp;temperature;humidity
19435;DHT22;9853;50.848;4.108;2022-09-09T00:00:48;16.10;99.90
19435;DHT22;9853;50.848;4.108;2022-09-09T00:06:01;16.00;99.90
19435;DHT22;9853;50.848;4.108;2022-09-09T00:07:47;15.90;99.90
19435;DHT22;9853;50.848;4.108;2022-09-09T00:10:15;15.70;99.90
19435;DHT22;9853;50.848;4.108;2022-09-09T00:14:29;15.50;99.90
19435;DHT22;9853;50.848;4.108;2022-09-09T00:16:55;15.50;99.90
19435;DHT22;9853;50.848;4.108;2022-09-09T00:19:18;15.40;99.90
19435;DHT22;9853;50.848;4.108;2022-09-09T00:21:39;15.30;99.90
19435;DHT22;9853;50.848;4.108;2022-09-09T00:23:51;15.40;99.90
19435;DHT22;9853;50.848;4.108;2022-09-09T00:26:14;15.40;99.90
19435;DHT22;9853;50.848;4.108;2022-09-09T00:28:27;15.40;99.90
19435;DHT22;9853;50.848;4.108;2022-09-09T00:30:39;15.50;99.90
19435;DHT22;9853;50.848;4.108;2022-09-09T00:32:40;15.50;99.90
19435;DHT22;9853;50.848;4.108;2022-09-09T00:34:52;15.40;99.90
19435;DHT22;9853;50.848;4.108;2022-09-09T00:36:55;15.50;99.90
19435;DHT22;9853;50.848;4.108;2022-09-09T00:38:58;15.40;99.90
19435;DHT22;9853;50.848;4.108;2022-09-09T00:43:37;15.40;99.90
19435;DHT22;9853;50.848;4.108;2022-09-09T00:48:16;15.60;99.90
19435;DHT22;9853;50.848;4.108;2022-09-09T00:57:26;15.70;99.90
19435;DHT22;9853;50.848;4.108;2022-09-09T00:59:40;15.70;99.90
19435;DHT22;9853;50.848;4.108;2022-09-09T01:01:45;15.70;99.90
19435;DHT22;9853;50.848;4.108;2022-09-09T01:03:53;15.70;99.90
19435;DHT22;9853;50.848;4.108;2022-09-09T01:08:43;15.70;99.90
19435;DHT22;9853;50.848;4.108;2022-09-09T01:10:51;15.80;99.90
19435;DHT22;9853;50.848;4.108;2022-09-09T01:13:29;15.70;99.90
19435;DHT22;9853;50.848;4.108;2022-09-09T01:15:32;15.80;99.90
19435;DHT22;9853;50.848;4.108;2022-09-09T01:17:50;15.80;99.90
19435;DHT22;9853;50.848;4.108;2022-09-09T01:20:11;16.00;99.90
19435;DHT22;9853;50.848;4.108;2022-09-09T01:22:36;16.00;99.90
19435;DHT22;9853;50.848;4.108;2022-09-09T01:25:01;15.90;99.90
19435;DHT22;9853;50.848;4.108;2022-09-09T01:27:36;15.90;99.90
19435;DHT22;9853;50.848;4.108;2022-09-09T01:29:38;15.80;99.90
19435;DHT22;9853;50.848;4.108;2022-09-09T01:31:51;15.70;99.90
19435;DHT22;9853;50.848;4.108;2022-09-09T01:34:00;15.90;99.90
19435;DHT22;9853;50.848;4.108;2022-09-09T01:36:08;16.00;99.90
19435;DHT22;9853;50.848;4.108;2022-09-09T01:38:20;15.90;99.90
19435;DHT22;9853;50.848;4.108;2022-09-09T01:40:25;15.70;99.90
19435;DHT22;9853;50.848;4.108;2022-09-09T01:42:26;15.70;99.90
19435;DHT22;9853;50.848;4.108;2022-09-09T01:44:28;15.90;99.90
19435;DHT22;9853;50.848;4.108;2022-09-09T01:46:30;15.70;99.90
19435;DHT22;9853;50.848;4.108;2022-09-09T01:48:32;15.70;99.90
19435;DHT22;9853;50.848;4.108;2022-09-09T01:50:39;15.60;99.90
19435;DHT22;9853;50.848;4.108;2022-09-09T01:52:42;15.50;99.90
19435;DHT22;9853;50.848;4.108;2022-09-09T01:54:46;15.50;99.90
19435;DHT22;9853;50.848;4.108;2022-09-09T01:57:11;15.40;99.90
19435;DHT22;9853;50.848;4.108;2022-09-09T02:03:56;15.60;99.90
19435;DHT22;9853;50.848;4.108;2022-09-09T02:08:26;15.50;99.90
19435;DHT22;9853;50.848;4.108;2022-09-09T02:10:59;15.40;99.90
19435;DHT22;9853;50.848;4.108;2022-09-09T02:13:14;15.50;99.90
19435;DHT22;9853;50.848;4.108;2022-09-09T02:17:46;15.40;99.90
19435;DHT22;9853;50.848;4.108;2022-09-09T02:20:05;15.40;99.90
19435;DHT22;9853;50.848;4.108;2022-09-09T02:22:19;15.40;99.90
19435;DHT22;9853;50.848;4.108;2022-09-09T02:24:22;15.40;99.90
19435;DHT22;9853;50.848;4.108;2022-09-09T02:26:38;15.50;99.90
19435;DHT22;9853;50.848;4.108;2022-09-09T02:28:41;15.50;99.90
19435;DHT22;9853;50.848;4.108;2022-09-09T02:30:44;15.40;99.90
19435;DHT22;9853;50.848;4.108;2022-09-09T02:32:51;15.50;99.90
19435;DHT22;9853;50.848;4.108;2022-09-09T02:34:59;15.40;99.90
19435;DHT22;9853;50.848;4.108;2022-09-09T02:37:01;15.40;99.90
19435;DHT22;9853;50.848;4.108;2022-09-09T02:39:06;15.50;99.90
19435;DHT22;9853;50.848;4.108;2022-09-09T02:41:09;15.50;99.90
19435;DHT22;9853;50.848;4.108;2022-09-09T02:43:11;15.50;99.90
19435;DHT22;9853;50.848;4.108;2022-09-09T02:45:15;15.40;99.90
19435;DHT22;9853;50.848;4.108;2022-09-09T02:47:30;15.40;99.90
19435;DHT22;9853;50.848;4.108;2022-09-09T02:52:04;15.40;99.90
19435;DHT22;9853;50.848;4.108;2022-09-09T02:56:21;15.40;99.90
19435;DHT22;9853;50.848;4.108;2022-09-09T02:58:24;15.40;99.90
19435;DHT22;9853;50.848;4.108;2022-09-09T03:00:33;15.50;99.90
19435;DHT22;9853;50.848;4.108;2022-09-09T03:02:36;15.50;99.90
19435;DHT22;9853;50.848;4.108;2022-09-09T03:04:40;15.50;99.90
19435;DHT22;9853;50.848;4.108;2022-09-09T03:06:44;15.50;99.90
19435;DHT22;9853;50.848;4.108;2022-09-09T03:08:54;15.50;99.90
19435;DHT22;9853;50.848;4.108;2022-09-09T03:10:59;15.50;99.90
19435;DHT22;9853;50.848;4.108;2022-09-09T03:13:06;15.50;99.90
19435;DHT22;9853;50.848;4.108;2022-09-09T03:15:10;15.40;99.90
19435;DHT22;9853;50.848;4.108;2022-09-09T03:17:13;15.40;99.90
19435;DHT22;9853;50.848;4.108;2022-09-09T03:19:20;15.40;99.90
19435;DHT22;9853;50.848;4.108;2022-09-09T03:21:21;15.50;99.90
19435;DHT22;9853;50.848;4.108;2022-09-09T03:23:23;15.50;99.90
19435;DHT22;9853;50.848;4.108;2022-09-09T03:25:25;15.60;99.90
19435;DHT22;9853;50.848;4.108;2022-09-09T03:27:27;15.60;99.90
19435;DHT22;9853;50.848;4.108;2022-09-09T03:29:29;15.50;99.90
19435;DHT22;9853;50.848;4.108;2022-09-09T03:31:33;15.50;99.90
19435;DHT22;9853;50.848;4.108;2022-09-09T03:33:34;15.50;99.90
19435;DHT22;9853;50.848;4.108;2022-09-09T03:35:36;15.60;99.90
19435;DHT22;9853;50.848;4.108;2022-09-09T03:37:37;15.70;99.90
19435;DHT22;9853;50.848;4.108;2022-09-09T03:39:39;15.70;99.90
19435;DHT22;9853;50.848;4.108;2022-09-09T03:41:41;15.90;99.90
19435;DHT22;9853;50.848;4.108;2022-09-09T03:43:41;16.00;99.90
19435;DHT22;9853;50.848;4.108;2022-09-09T03:45:46;16.00;99.90
19435;DHT22;9853;50.848;4.108;2022-09-09T03:47:49;15.90;99.90
19435;DHT22;9853;50.848;4.108;2022-09-09T03:49:51;15.80;99.90
19435;DHT22;9853;50.848;4.108;2022-09-09T03:51:51;15.80;99.90
19435;DHT22;9853;50.848;4.108;2022-09-09T03:53:52;15.80;99.90
19435;DHT22;9853;50.848;4.108;2022-09-09T03:55:56;15.90;99.90
19435;DHT22;9853;50.848;4.108;2022-09-09T03:58:00;15.80;99.90
19435;DHT22;9853;50.848;4.108;2022-09-09T04:00:06;15.80;99.90
19435;DHT22;9853;50.848;4.108;2022-09-09T04:02:17;15.80;99.90
19435;DHT22;9853;50.848;4.108;2022-09-09T04:04:17;15.80;99.90
19435;DHT22;9853;50.848;4.108;2022-09-09T04:06:20;15.80;99.90
19435;DHT22;9853;50.848;4.108;2022-09-09T04:08:22;15.80;99.90
19435;DHT22;9853;50.848;4.108;2022-09-09T04:10:26;15.70;99.90
19435;DHT22;9853;50.848;4.108;2022-09-09T04:12:28;15.60;99.90
19435;DHT22;9853;50.848;4.108;2022-09-09T04:14:29;15.50;99.90
19435;DHT22;9853;50.848;4.108;2022-09-09T04:16:32;15.60;99.90
19435;DHT22;9853;50.848;4.108;2022-09-09T04:18:33;15.70;99.90
19435;DHT22;9853;50.848;4.108;2022-09-09T04:20:35;15.70;99.90
19435;DHT22;9853;50.848;4.108;2022-09-09T04:22:36;15.80;99.90
19435;DHT22;9853;50.848;4.108;2022-09-09T04:24:39;15.80;99.90
19435;DHT22;9853;50.848;4.108;2022-09-09T04:26:39;15.80;99.90
19435;DHT22;9853;50.848;4.108;2022-09-09T04:28:41;15.90;99.90
19435;DHT22;9853;50.848;4.108;2022-09-09T04:30:50;15.90;99.90
19435;DHT22;9853;50.848;4.108;2022-09-09T04:32:51;15.80;99.90
19435;DHT22;9853;50.848;4.108;2022-09-09T04:34:52;15.70;99.90
19435;DHT22;9853;50.848;4.108;2022-09-09T04:36:53;15.50;99.90
19435;DHT22;9853;50.848;4.108;2022-09-09T04:38:54;15.50;99.90
19435;DHT22;9853;50.848;4.108;2022-09-09T04:40:55;15.50;99.90
19435;DHT22;9853;50.848;4.108;2022-09-09T04:43:00;15.50;99.90
19435;DHT22;9853;50.848;4.108;2022-09-09T04:45:01;15.60;99.90
19435;DHT22;9853;50.848;4.108;2022-09-09T04:47:02;15.70;99.90
19435;DHT22;9853;50.848;4.108;2022-09-09T04:49:03;15.60;99.90
19435;DHT22;9853;50.848;4.108;2022-09-09T04:51:08;15.50;99.90
19435;DHT22;9853;50.848;4.108;2022-09-09T04:53:10;15.60;99.90
19435;DHT22;9853;50.848;4.108;2022-09-09T04:55:12;15.70;99.90
19435;DHT22;9853;50.848;4.108;2022-09-09T04:57:16;15.60;99.90
19435;DHT22;9853;50.848;4.108;2022-09-09T04:59:17;15.70;99.90
19435;DHT22;9853;50.848;4.108;2022-09-09T05:01:22;15.60;99.90
19435;DHT22;9853;50.848;4.108;2022-09-09T05:03:25;15.50;99.90
19435;DHT22;9853;50.848;4.108;2022-09-09T05:05:27;15.50;99.90
19435;DHT22;9853;50.848;4.108;2022-09-09T05:07:29;15.50;99.90
19435;DHT22;9853;50.848;4.108;2022-09-09T05:09:32;15.70;99.90
19435;DHT22;9853;50.848;4.108;2022-09-09T05:11:35;15.60;99.90
19435;DHT22;9853;50.848;4.108;2022-09-09T05:13:59;15.60;99.90
19435;DHT22;9853;50.848;4.108;2022-09-09T05:15:59;15.70;99.90
19435;DHT22;9853;50.848;4.108;2022-09-09T05:18:04;15.70;99.90
19435;DHT22;9853;50.848;4.108;2022-09-09T05:20:06;15.70;99.90
19435;DHT22;9853;50.848;4.108;2022-09-09T05:22:07;15.70;99.90
19435;DHT22;9853;50.848;4.108;2022-09-09T05:24:15;15.80;99.90
19435;DHT22;9853;50.848;4.108;2022-09-09T05:26:19;15.80;99.90
19435;DHT22;9853;50.848;4.108;2022-09-09T05:28:23;15.90;99.90
19435;DHT22;9853;50.848;4.108;2022-09-09T05:30:25;16.00;99.90
19435;DHT22;9853;50.848;4.108;2022-09-09T05:32:27;16.00;99.90
19435;DHT22;9853;50.848;4.108;2022-09-09T05:34:33;15.90;99.90
19435;DHT22;9853;50.848;4.108;2022-09-09T05:36:34;15.90;99.90
19435;DHT22;9853;50.848;4.108;2022-09-09T05:38:35;15.80;99.90
19435;DHT22;9853;50.848;4.108;2022-09-09T05:40:36;15.60;99.90
19435;DHT22;9853;50.848;4.108;2022-09-09T05:42:37;15.70;99.90
19435;DHT22;9853;50.848;4.108;2022-09-09T05:44:39;15.80;99.90
19435;DHT22;9853;50.848;4.108;2022-09-09T05:46:41;15.80;99.90
19435;DHT22;9853;50.848;4.108;2022-09-09T05:48:44;15.70;99.90
19435;DHT22;9853;50.848;4.108;2022-09-09T05:50:52;15.80;99.90
19435;DHT22;9853;50.848;4.108;2022-09-09T05:52:55;15.70;99.90
19435;DHT22;9853;50.848;4.108;2022-09-09T05:54:55;15.60;99.90
19435;DHT22;9853;50.848;4.108;2022-09-09T05:56:57;15.60;99.90
19435;DHT22;9853;50.848;4.108;2022-09-09T05:58:58;15.70;99.90
19435;DHT22;9853;50.848;4.108;2022-09-09T06:01:12;15.90;99.90
19435;DHT22;9853;50.848;4.108;2022-09-09T06:03:15;16.20;99.90
19435;DHT22;9853;50.848;4.108;2022-09-09T06:05:17;16.20;99.90
19435;DHT22;9853;50.848;4.108;2022-09-09T06:07:20;16.30;99.90
19435;DHT22;9853;50.848;4.108;2022-09-09T06:09:21;16.30;99.90
19435;DHT22;9853;50.848;4.108;2022-09-09T06:11:23;16.20;99.90
19435;DHT22;9853;50.848;4.108;2022-09-09T06:13:25;16.20;99.90
19435;DHT22;9853;50.848;4.108;2022-09-09T06:15:25;16.30;99.90
19435;DHT22;9853;50.848;4.108;2022-09-09T06:17:27;16.30;99.90
19435;DHT22;9853;50.848;4.108;2022-09-09T06:19:28;16.40;99.90
19435;DHT22;9853;50.848;4.108;2022-09-09T06:21:36;16.50;99.90
19435;DHT22;9853;50.848;4.108;2022-09-09T06:23:43;16.60;99.90
19435;DHT22;9853;50.848;4.108;2022-09-09T06:25:48;16.70;99.90
19435;DHT22;9853;50.848;4.108;2022-09-09T06:27:49;16.70;99.90
19435;DHT22;9853;50.848;4.108;2022-09-09T06:29:50;16.80;99.90
19435;DHT22;9853;50.848;4.108;2022-09-09T06:31:51;16.70;99.90
19435;DHT22;9853;50.848;4.108;2022-09-09T06:33:57;16.60;99.90
19435;DHT22;9853;50.848;4.108;2022-09-09T06:35:58;16.70;99.90
19435;DHT22;9853;50.848;4.108;2022-09-09T06:37:59;16.60;99.90
19435;DHT22;9853;50.848;4.108;2022-09-09T06:40:01;16.50;99.90
19435;DHT22;9853;50.848;4.108;2022-09-09T06:42:02;16.40;99.90
19435;DHT22;9853;50.848;4.108;2022-09-09T06:44:22;16.50;99.90
19435;DHT22;9853;50.848;4.108;2022-09-09T06:46:32;16.60;99.90
19435;DHT22;9853;50.848;4.108;2022-09-09T06:48:34;16.70;99.90
19435;DHT22;9853;50.848;4.108;2022-09-09T06:50:37;16.80;99.90
19435;DHT22;9853;50.848;4.108;2022-09-09T06:52:44;16.70;99.90
19435;DHT22;9853;50.848;4.108;2022-09-09T06:55:08;16.80;99.90
19435;DHT22;9853;50.848;4.108;2022-09-09T06:57:20;16.80;99.90
19435;DHT22;9853;50.848;4.108;2022-09-09T07:01:45;16.90;99.90
19435;DHT22;9853;50.848;4.108;2022-09-09T07:03:52;16.90;99.90
19435;DHT22;9853;50.848;4.108;2022-09-09T07:06:24;17.00;99.90
19435;DHT22;9853;50.848;4.108;2022-09-09T07:08:28;16.90;99.90
19435;DHT22;9853;50.848;4.108;2022-09-09T07:10:53;17.10;99.90
19435;DHT22;9853;50.848;4.108;2022-09-09T07:12:56;17.10;99.90
19435;DHT22;9853;50.848;4.108;2022-09-09T07:14:59;17.10;99.90
19435;DHT22;9853;50.848;4.108;2022-09-09T07:17:03;16.90;99.90
19435;DHT22;9853;50.848;4.108;2022-09-09T07:19:10;17.00;99.90
19435;DHT22;9853;50.848;4.108;2022-09-09T07:21:13;16.90;99.90
19435;DHT22;9853;50.848;4.108;2022-09-09T07:23:16;16.80;99.90
19435;DHT22;9853;50.848;4.108;2022-09-09T07:25:18;16.80;99.90
19435;DHT22;9853;50.848;4.108;2022-09-09T07:27:23;16.80;99.90
19435;DHT22;9853;50.848;4.108;2022-09-09T07:29:27;16.80;99.90
19435;DHT22;9853;50.848;4.108;2022-09-09T07:31:33;16.80;99.90
19435;DHT22;9853;50.848;4.108;2022-09-09T07:33:35;16.70;99.90
19435;DHT22;9853;50.848;4.108;2022-09-09T07:35:37;16.70;99.90
19435;DHT22;9853;50.848;4.108;2022-09-09T07:37:38;16.80;99.90
19435;DHT22;9853;50.848;4.108;2022-09-09T07:39:39;16.90;99.90
19435;DHT22;9853;50.848;4.108;2022-09-09T07:41:46;16.90;99.90
19435;DHT22;9853;50.848;4.108;2022-09-09T07:43:49;17.20;99.90
19435;DHT22;9853;50.848;4.108;2022-09-09T07:45:57;17.10;99.90
19435;DHT22;9853;50.848;4.108;2022-09-09T07:47:58;17.00;99.90
19435;DHT22;9853;50.848;4.108;2022-09-09T07:50:01;17.20;99.90
19435;DHT22;9853;50.848;4.108;2022-09-09T07:52:05;17.40;99.90
19435;DHT22;9853;50.848;4.108;2022-09-09T07:54:09;17.50;99.90
19435;DHT22;9853;50.848;4.108;2022-09-09T07:56:15;17.70;99.90
19435;DHT22;9853;50.848;4.108;2022-09-09T07:58:48;17.90;99.90
19435;DHT22;9853;50.848;4.108;2022-09-09T08:00:50;17.90;99.90
19435;DHT22;9853;50.848;4.108;2022-09-09T08:02:51;18.00;99.90
19435;DHT22;9853;50.848;4.108;2022-09-09T08:04:56;18.10;99.90
19435;DHT22;9853;50.848;4.108;2022-09-09T08:06:59;18.30;99.90
19435;DHT22;9853;50.848;4.108;2022-09-09T08:09:02;18.40;99.90
19435;DHT22;9853;50.848;4.108;2022-09-09T08:11:09;18.50;99.90
19435;DHT22;9853;50.848;4.108;2022-09-09T08:13:10;18.30;99.90
19435;DHT22;9853;50.848;4.108;2022-09-09T08:15:12;18.40;99.90
19435;DHT22;9853;50.848;4.108;2022-09-09T08:17:15;18.30;99.90
19435;DHT22;9853;50.848;4.108;2022-09-09T08:19:17;18.20;99.90
19435;DHT22;9853;50.848;4.108;2022-09-09T08:21:39;18.00;99.90
19435;DHT22;9853;50.848;4.108;2022-09-09T08:23:41;17.90;99.90
19435;DHT22;9853;50.848;4.108;2022-09-09T08:25:42;17.80;99.90
19435;DHT22;9853;50.848;4.108;2022-09-09T08:27:48;17.80;99.90
19435;DHT22;9853;50.848;4.108;2022-09-09T08:29:49;17.70;99.90
19435;DHT22;9853;50.848;4.108;2022-09-09T08:31:53;17.70;99.90
19435;DHT22;9853;50.848;4.108;2022-09-09T08:33:57;17.50;99.90
19435;DHT22;9853;50.848;4.108;2022-09-09T08:36:03;17.50;99.90
19435;DHT22;9853;50.848;4.108;2022-09-09T08:38:04;17.50;99.90
19435;DHT22;9853;50.848;4.108;2022-09-09T08:40:05;17.40;99.90
19435;DHT22;9853;50.848;4.108;2022-09-09T08:42:30;17.30;99.90
19435;DHT22;9853;50.848;4.108;2022-09-09T08:55:24;17.00;99.90
19435;DHT22;9853;50.848;4.108;2022-09-09T08:57:30;17.20;99.90
19435;DHT22;9853;50.848;4.108;2022-09-09T08:59:35;17.20;99.90
19435;DHT22;9853;50.848;4.108;2022-09-09T09:02:04;17.20;99.90
19435;DHT22;9853;50.848;4.108;2022-09-09T09:11:22;17.50;99.90
19435;DHT22;9853;50.848;4.108;2022-09-09T09:13:34;17.50;99.90
19435;DHT22;9853;50.848;4.108;2022-09-09T09:15:37;17.50;99.90
19435;DHT22;9853;50.848;4.108;2022-09-09T09:17:40;17.50;99.90
19435;DHT22;9853;50.848;4.108;2022-09-09T09:19:44;17.50;99.90
19435;DHT22;9853;50.848;4.108;2022-09-09T09:24:11;17.60;99.90
19435;DHT22;9853;50.848;4.108;2022-09-09T09:26:16;17.50;99.90
19435;DHT22;9853;50.848;4.108;2022-09-09T09:28:25;17.60;99.90
19435;DHT22;9853;50.848;4.108;2022-09-09T09:30:35;17.60;99.90
19435;DHT22;9853;50.848;4.108;2022-09-09T09:32:56;17.60;99.90
19435;DHT22;9853;50.848;4.108;2022-09-09T09:34:59;17.60;99.90
19435;DHT22;9853;50.848;4.108;2022-09-09T09:37:28;17.50;99.90
19435;DHT22;9853;50.848;4.108;2022-09-09T09:39:33;17.50;99.90
19435;DHT22;9853;50.848;4.108;2022-09-09T09:41:51;17.60;99.90
19435;DHT22;9853;50.848;4.108;2022-09-09T09:43:54;17.50;99.90
19435;DHT22;9853;50.848;4.108;2022-09-09T09:45:56;17.50;99.90
19435;DHT22;9853;50.848;4.108;2022-09-09T09:48:06;17.50;99.90
19435;DHT22;9853;50.848;4.108;2022-09-09T09:50:19;17.60;99.90
19435;DHT22;9853;50.848;4.108;2022-09-09T09:52:24;17.60;99.90
19435;DHT22;9853;50.848;4.108;2022-09-09T09:54:37;17.60;99.90
19435;DHT22;9853;50.848;4.108;2022-09-09T09:56:38;17.60;99.90
19435;DHT22;9853;50.848;4.108;2022-09-09T09:58:50;17.70;99.90
19435;DHT22;9853;50.848;4.108;2022-09-09T10:00:54;17.80;99.90
19435;DHT22;9853;50.848;4.108;2022-09-09T10:03:01;17.90;99.90
19435;DHT22;9853;50.848;4.108;2022-09-09T10:05:13;18.00;99.90
19435;DHT22;9853;50.848;4.108;2022-09-09T10:07:21;17.90;99.90
19435;DHT22;9853;50.848;4.108;2022-09-09T10:09:23;18.10;99.90
19435;DHT22;9853;50.848;4.108;2022-09-09T10:14:23;18.30;99.90
19435;DHT22;9853;50.848;4.108;2022-09-09T10:19:15;18.90;99.90
19435;DHT22;9853;50.848;4.108;2022-09-09T10:23:58;19.20;99.90
19435;DHT22;9853;50.848;4.108;2022-09-09T10:28:54;19.20;99.90
19435;DHT22;9853;50.848;4.108;2022-09-09T10:31:11;19.50;99.90
19435;DHT22;9853;50.848;4.108;2022-09-09T10:35:47;19.60;99.90
19435;DHT22;9853;50.848;4.108;2022-09-09T10:40:33;19.60;99.90
19435;DHT22;9853;50.848;4.108;2022-09-09T10:42:34;19.60;99.90
19435;DHT22;9853;50.848;4.108;2022-09-09T10:44:56;19.70;99.90
19435;DHT22;9853;50.848;4.108;2022-09-09T10:47:28;19.60;99.90
19435;DHT22;9853;50.848;4.108;2022-09-09T10:56:23;19.50;99.90
19435;DHT22;9853;50.848;4.108;2022-09-09T10:58:32;19.50;99.90
19435;DHT22;9853;50.848;4.108;2022-09-09T11:00:42;19.60;99.90
19435;DHT22;9853;50.848;4.108;2022-09-09T11:02:54;19.80;99.90
19435;DHT22;9853;50.848;4.108;2022-09-09T11:05:16;19.80;99.90
19435;DHT22;9853;50.848;4.108;2022-09-09T11:07:28;19.80;99.90
19435;DHT22;9853;50.848;4.108;2022-09-09T11:09:35;19.80;99.90
19435;DHT22;9853;50.848;4.108;2022-09-09T11:11:44;20.10;99.90
19435;DHT22;9853;50.848;4.108;2022-09-09T11:14:03;20.20;99.90
19435;DHT22;9853;50.848;4.108;2022-09-09T11:18:29;20.00;99.90
19435;DHT22;9853;50.848;4.108;2022-09-09T11:20:32;20.10;99.90
19435;DHT22;9853;50.848;4.108;2022-09-09T11:24:50;19.60;99.90
19435;DHT22;9853;50.848;4.108;2022-09-09T11:27:07;19.50;99.90
19435;DHT22;9853;50.848;4.108;2022-09-09T11:31:46;19.50;99.90
19435;DHT22;9853;50.848;4.108;2022-09-09T11:34:25;19.60;99.90
19435;DHT22;9853;50.848;4.108;2022-09-09T11:36:50;19.70;99.90
19435;DHT22;9853;50.848;4.108;2022-09-09T11:41:35;20.20;99.90
19435;DHT22;9853;50.848;4.108;2022-09-09T11:43:44;20.00;99.90
19435;DHT22;9853;50.848;4.108;2022-09-09T11:45:54;20.00;99.90
19435;DHT22;9853;50.848;4.108;2022-09-09T11:48:00;19.80;99.90
19435;DHT22;9853;50.848;4.108;2022-09-09T11:50:42;19.90;99.90
19435;DHT22;9853;50.848;4.108;2022-09-09T11:52:45;19.80;99.90
19435;DHT22;9853;50.848;4.108;2022-09-09T11:54:51;19.70;99.90
19435;DHT22;9853;50.848;4.108;2022-09-09T11:56:51;19.70;99.90
19435;DHT22;9853;50.848;4.108;2022-09-09T11:58:58;19.80;99.90
19435;DHT22;9853;50.848;4.108;2022-09-09T12:01:25;19.90;99.90
19435;DHT22;9853;50.848;4.108;2022-09-09T12:03:45;19.90;99.90
19435;DHT22;9853;50.848;4.108;2022-09-09T12:05:50;20.20;99.90
19435;DHT22;9853;50.848;4.108;2022-09-09T12:07:56;20.20;99.90
19435;DHT22;9853;50.848;4.108;2022-09-09T12:16:42;20.40;99.90
19435;DHT22;9853;50.848;4.108;2022-09-09T12:18:43;20.30;99.90
19435;DHT22;9853;50.848;4.108;2022-09-09T12:21:18;20.60;99.90
19435;DHT22;9853;50.848;4.108;2022-09-09T12:23:43;20.70;99.90
19435;DHT22;9853;50.848;4.108;2022-09-09T12:26:16;20.90;99.90
19435;DHT22;9853;50.848;4.108;2022-09-09T12:28:46;20.50;99.90
19435;DHT22;9853;50.848;4.108;2022-09-09T12:30:58;20.40;99.90
19435;DHT22;9853;50.848;4.108;2022-09-09T12:33:10;20.40;99.90
19435;DHT22;9853;50.848;4.108;2022-09-09T12:35:23;20.40;99.90
19435;DHT22;9853;50.848;4.108;2022-09-09T12:40:25;20.40;99.90
19435;DHT22;9853;50.848;4.108;2022-09-09T12:42:26;20.50;99.90
19435;DHT22;9853;50.848;4.108;2022-09-09T12:44:27;20.50;99.90
19435;DHT22;9853;50.848;4.108;2022-09-09T12:46:45;20.50;99.90
19435;DHT22;9853;50.848;4.108;2022-09-09T12:48:46;20.40;99.90
19435;DHT22;9853;50.848;4.108;2022-09-09T12:50:50;20.50;99.90
19435;DHT22;9853;50.848;4.108;2022-09-09T12:53:01;20.50;99.90
19435;DHT22;9853;50.848;4.108;2022-09-09T12:55:03;20.40;99.90
19435;DHT22;9853;50.848;4.108;2022-09-09T12:57:09;20.70;99.90
19435;DHT22;9853;50.848;4.108;2022-09-09T12:59:25;20.70;99.90
19435;DHT22;9853;50.848;4.108;2022-09-09T13:01:32;20.70;99.90
19435;DHT22;9853;50.848;4.108;2022-09-09T13:03:42;20.60;99.90
19435;DHT22;9853;50.848;4.108;2022-09-09T13:05:44;20.60;99.90
19435;DHT22;9853;50.848;4.108;2022-09-09T13:07:47;20.80;99.90
19435;DHT22;9853;50.848;4.108;2022-09-09T13:09:49;20.90;99.90
19435;DHT22;9853;50.848;4.108;2022-09-09T13:12:14;21.00;99.90
19435;DHT22;9853;50.848;4.108;2022-09-09T13:14:26;20.80;99.90
19435;DHT22;9853;50.848;4.108;2022-09-09T13:16:30;20.80;99.90
19435;DHT22;9853;50.848;4.108;2022-09-09T13:18:35;21.00;99.90
19435;DHT22;9853;50.848;4.108;2022-09-09T13:20:36;21.10;99.90
19435;DHT22;9853;50.848;4.108;2022-09-09T13:22:38;21.40;99.90
19435;DHT22;9853;50.848;4.108;2022-09-09T13:24:41;21.50;99.90
19435;DHT22;9853;50.848;4.108;2022-09-09T13:26:43;21.60;99.90
19435;DHT22;9853;50.848;4.108;2022-09-09T13:28:45;21.80;99.90
19435;DHT22;9853;50.848;4.108;2022-09-09T13:31:35;21.90;99.90
19435;DHT22;9853;50.848;4.108;2022-09-09T13:33:37;22.00;99.90
19435;DHT22;9853;50.848;4.108;2022-09-09T13:35:54;22.00;99.90
19435;DHT22;9853;50.848;4.108;2022-09-09T13:37:59;21.90;99.90
19435;DHT22;9853;50.848;4.108;2022-09-09T13:40:18;21.80;99.90
19435;DHT22;9853;50.848;4.108;2022-09-09T13:42:25;21.70;99.90
19435;DHT22;9853;50.848;4.108;2022-09-09T13:44:35;21.70;99.90
19435;DHT22;9853;50.848;4.108;2022-09-09T13:46:39;21.70;99.90
19435;DHT22;9853;50.848;4.108;2022-09-09T13:51:32;21.70;99.90
19435;DHT22;9853;50.848;4.108;2022-09-09T13:53:34;21.70;99.90
19435;DHT22;9853;50.848;4.108;2022-09-09T13:55:36;21.60;99.90
19435;DHT22;9853;50.848;4.108;2022-09-09T13:57:37;21.50;99.90
19435;DHT22;9853;50.848;4.108;2022-09-09T13:59:37;21.60;99.90
19435;DHT22;9853;50.848;4.108;2022-09-09T14:01:38;21.60;99.90
19435;DHT22;9853;50.848;4.108;2022-09-09T14:03:39;21.40;99.90
19435;DHT22;9853;50.848;4.108;2022-09-09T14:05:39;21.30;99.90
19435;DHT22;9853;50.848;4.108;2022-09-09T14:07:40;21.20;99.90
19435;DHT22;9853;50.848;4.108;2022-09-09T14:09:42;21.40;99.90
19435;DHT22;9853;50.848;4.108;2022-09-09T14:11:44;21.60;99.90
19435;DHT22;9853;50.848;4.108;2022-09-09T14:13:46;21.70;99.90
19435;DHT22;9853;50.848;4.108;2022-09-09T14:15:51;21.90;99.90
19435;DHT22;9853;50.848;4.108;2022-09-09T14:17:51;21.90;99.90
19435;DHT22;9853;50.848;4.108;2022-09-09T14:19:52;21.90;99.90
19435;DHT22;9853;50.848;4.108;2022-09-09T14:21:53;22.20;99.90
19435;DHT22;9853;50.848;4.108;2022-09-09T14:23:55;22.40;99.90
19435;DHT22;9853;50.848;4.108;2022-09-09T14:25:56;22.80;99.90
19435;DHT22;9853;50.848;4.108;2022-09-09T14:27:56;23.00;99.90
19435;DHT22;9853;50.848;4.108;2022-09-09T14:29:57;22.90;99.90
19435;DHT22;9853;50.848;4.108;2022-09-09T14:31:58;22.90;99.90
19435;DHT22;9853;50.848;4.108;2022-09-09T14:34:03;22.50;99.90
19435;DHT22;9853;50.848;4.108;2022-09-09T14:36:04;22.50;99.90
19435;DHT22;9853;50.848;4.108;2022-09-09T14:38:05;22.50;99.90
19435;DHT22;9853;50.848;4.108;2022-09-09T14:40:06;22.60;99.90
19435;DHT22;9853;50.848;4.108;2022-09-09T14:42:07;22.60;99.90
19435;DHT22;9853;50.848;4.108;2022-09-09T14:44:10;22.70;99.90
19435;DHT22;9853;50.848;4.108;2022-09-09T14:46:15;22.70;99.90
19435;DHT22;9853;50.848;4.108;2022-09-09T14:48:17;22.80;99.90
19435;DHT22;9853;50.848;4.108;2022-09-09T14:50:22;23.00;99.90
19435;DHT22;9853;50.848;4.108;2022-09-09T14:52:22;23.10;99.90
19435;DHT22;9853;50.848;4.108;2022-09-09T14:54:23;23.00;99.90
19435;DHT22;9853;50.848;4.108;2022-09-09T14:56:27;22.80;99.90
19435;DHT22;9853;50.848;4.108;2022-09-09T14:58:30;22.70;99.90
19435;DHT22;9853;50.848;4.108;2022-09-09T15:00:31;22.80;99.90
19435;DHT22;9853;50.848;4.108;2022-09-09T15:02:32;22.80;99.90
19435;DHT22;9853;50.848;4.108;2022-09-09T15:04:33;22.70;99.90
19435;DHT22;9853;50.848;4.108;2022-09-09T15:06:35;22.90;99.90
19435;DHT22;9853;50.848;4.108;2022-09-09T15:08:41;22.80;99.90
19435;DHT22;9853;50.848;4.108;2022-09-09T15:10:42;22.50;99.90
19435;DHT22;9853;50.848;4.108;2022-09-09T15:12:45;22.30;99.90
19435;DHT22;9853;50.848;4.108;2022-09-09T15:14:46;22.00;99.90